Chester, West Virginia
Current Conditions -  °F | °C
As of 1:47 PM on Saturday 25 Oct 2014 (Local Time) from KBVI Reporting Station
Overcast Overcast  
Wind Chill: 64°   Ceiling: 4300
Heat Index: 64°   Visibility: 10mi
Dew Point: 48°   Wind: 9mph
Humidity: 56%   Direction: 240°WSW
Pressure: 29.82"   Gusts: 21mph
Location:  40.61°N, 80.56°W
Report Text: KBVI 251747Z 24008G18KT 10SM OVC043 18/09 A2982
Loading
Personal Weather Stations






























Interactive Weather Map
Tropical Storm Tracking
New forecast layout! Learn more

10-Day Weather Forecast

Advertisements
Track Severe Weather on mobile